createdAt,value
2022-11-16T07:36:30.938Z,23.88
2022-11-16T07:38:58.053Z,24.63
2022-11-16T07:41:24.938Z,24.52
2022-11-16T07:44:12.118Z,23.52
2022-11-16T07:46:48.845Z,25.67
2022-11-16T07:49:19.149Z,25.38
2022-11-16T07:51:53.901Z,21.38
2022-11-16T07:54:52.882Z,22.05
2022-11-16T07:57:22.818Z,20.67
2022-11-16T07:59:51.153Z,19.45
2022-11-16T08:02:17.701Z,21.92
2022-11-16T08:04:45.249Z,19.42
2022-11-16T08:07:12.339Z,24.40
2022-11-16T08:09:50.020Z,27.45
2022-11-16T08:12:17.368Z,26.00
2022-11-16T08:14:44.558Z,25.65
2022-11-16T08:19:40.262Z,26.30
2022-11-16T08:22:08.428Z,24.05
2022-11-16T08:24:35.103Z,21.80
2022-11-16T08:27:01.851Z,21.13
2022-11-16T08:29:28.443Z,22.02
2022-11-16T08:34:23.454Z,23.33
2022-11-16T08:36:55.221Z,21.10
2022-11-16T08:39:27.211Z,25.40
2022-11-16T08:41:53.844Z,23.35
2022-11-16T08:44:20.300Z,19.60
2022-11-16T08:46:51.831Z,20.27
2022-11-16T08:49:36.057Z,20.17
2022-11-16T08:52:02.565Z,21.73
2022-11-16T08:54:30.719Z,24.17
2022-11-16T08:56:57.537Z,19.80
2022-11-16T08:59:24.088Z,22.05
2022-11-16T09:01:54.148Z,17.92
2022-11-16T09:04:20.666Z,19.67
2022-11-16T09:06:47.144Z,21.63
2022-11-16T09:09:13.617Z,17.65
2022-11-16T09:11:40.137Z,17.80
2022-11-16T09:14:06.599Z,15.65
2022-11-16T09:16:33.092Z,16.02
2022-11-16T09:19:00.880Z,13.95
2022-11-16T09:21:30.188Z,14.65
2022-11-16T09:23:57.539Z,19.98
2022-11-16T09:26:24.719Z,14.57
2022-11-16T09:28:55.792Z,15.88
2022-11-16T09:31:23.721Z,13.77
2022-11-16T09:33:50.905Z,12.13
2022-11-16T09:36:17.645Z,12.63
2022-11-16T09:41:37.505Z,12.27
2022-11-16T09:44:06.802Z,12.82
2022-11-16T09:46:41.636Z,13.25
2022-11-16T09:49:17.167Z,15.00
2022-11-16T09:51:47.379Z,12.60
2022-11-16T09:54:24.197Z,12.20
2022-11-16T09:56:52.610Z,14.32
2022-11-16T09:59:27.594Z,15.95
2022-11-16T10:01:53.995Z,11.85
2022-11-16T10:04:39.217Z,13.93
2022-11-16T10:07:09.160Z,21.20
2022-11-16T10:09:36.068Z,20.48
2022-11-16T10:12:11.302Z,14.50
2022-11-16T10:14:38.445Z,14.50
2022-11-16T10:17:20.996Z,15.55
2022-11-16T10:19:50.440Z,12.50
2022-11-16T10:22:28.505Z,13.68
2022-11-16T10:24:58.915Z,12.50
2022-11-16T10:27:37.830Z,14.30
2022-11-16T10:30:13.953Z,13.68
2022-11-16T10:33:12.513Z,12.73
2022-11-16T10:35:41.536Z,15.13
2022-11-16T10:38:13.002Z,14.20
2022-11-16T10:40:40.718Z,12.85
2022-11-16T10:43:29.049Z,11.82
2022-11-16T10:48:36.940Z,14.75
2022-11-16T10:51:04.500Z,16.05
2022-11-16T10:53:35.342Z,14.03
2022-11-16T10:56:11.995Z,16.50
2022-11-16T10:58:53.654Z,13.90
2022-11-16T11:01:38.317Z,13.77
2022-11-16T11:04:23.802Z,12.43
2022-11-16T11:06:51.893Z,13.90
2022-11-16T11:09:27.476Z,11.32
2022-11-16T11:12:19.690Z,11.90
2022-11-16T11:15:00.059Z,14.70
2022-11-16T11:17:26.655Z,19.67
2022-11-16T11:20:00.614Z,15.25
2022-11-16T11:22:27.536Z,16.45
2022-11-16T11:24:54.425Z,12.52
2022-11-16T11:27:22.353Z,16.60
2022-11-16T11:29:52.019Z,14.02
2022-11-16T11:32:23.875Z,14.82
2022-11-16T11:34:52.595Z,14.13
2022-11-16T11:37:25.701Z,14.63
2022-11-16T11:40:10.811Z,13.93
2022-11-16T11:42:38.782Z,16.17
2022-11-16T11:45:11.568Z,13.20
2022-11-16T11:47:59.625Z,15.98
2022-11-16T11:53:16.207Z,12.75
2022-11-16T11:55:42.726Z,15.23
2022-11-16T11:58:15.122Z,13.15
2022-11-16T12:01:00.360Z,14.38
2022-11-16T12:03:31.197Z,13.63
2022-11-16T12:06:14.532Z,12.25
2022-11-16T12:08:47.761Z,15.90
2022-11-16T12:11:38.538Z,12.98
2022-11-16T12:14:18.173Z,12.25
2022-11-16T12:17:03.210Z,12.68
2022-11-16T12:19:48.232Z,11.40
2022-11-16T12:22:21.367Z,15.20
2022-11-16T12:25:06.302Z,10.63
2022-11-16T12:27:41.615Z,11.60
2022-11-16T12:30:10.972Z,13.57
2022-11-16T12:32:52.798Z,14.10
2022-11-16T12:35:19.329Z,17.92
2022-11-16T12:38:12.551Z,19.55
2022-11-16T12:40:41.882Z,21.25
2022-11-16T12:43:26.913Z,18.08
2022-11-16T12:45:59.242Z,18.33
2022-11-16T12:48:34.727Z,24.67
2022-11-16T12:51:03.952Z,14.93
2022-11-16T12:53:33.592Z,14.98
2022-11-16T12:56:12.455Z,17.52
2022-11-16T12:58:52.623Z,18.25
2022-11-16T13:01:31.290Z,17.63
2022-11-16T13:04:00.642Z,15.90
2022-11-16T13:06:30.982Z,15.27
2022-11-16T13:09:08.336Z,42.45
2022-11-16T13:11:37.176Z,13.35
2022-11-16T13:14:10.885Z,14.45
2022-11-16T13:16:37.487Z,14.48
2022-11-16T13:19:05.650Z,12.02
2022-11-16T13:22:03.502Z,15.60
2022-11-16T13:24:40.649Z,16.60
2022-11-16T13:27:10.245Z,14.20
2022-11-16T13:29:36.653Z,21.60
2022-11-16T13:32:29.659Z,13.68
2022-11-16T13:34:57.518Z,16.67
2022-11-16T13:37:39.417Z,23.30
2022-11-16T13:40:05.969Z,20.73
2022-11-16T13:42:52.799Z,23.25
2022-11-16T13:45:20.681Z,14.43
2022-11-16T13:47:54.465Z,16.98
2022-11-16T13:50:22.947Z,18.15
2022-11-16T13:55:38.617Z,15.68
2022-11-16T13:58:06.205Z,18.95
2022-11-16T14:00:34.744Z,17.13
2022-11-16T14:03:16.521Z,16.25
2022-11-16T14:05:52.596Z,17.10
2022-11-16T14:08:19.071Z,14.68
2022-11-16T14:10:51.580Z,18.63
2022-11-16T14:13:30.466Z,17.00
2022-11-16T14:16:32.530Z,16.90
2022-11-16T14:19:00.182Z,16.90
2022-11-16T14:21:32.432Z,18.95
2022-11-16T14:24:13.924Z,16.50
2022-11-16T14:26:58.807Z,17.53
2022-11-16T14:29:44.178Z,25.80
2022-11-16T14:32:31.275Z,22.80
2022-11-16T14:34:58.988Z,20.23
2022-11-16T14:37:25.592Z,20.67
2022-11-16T14:39:53.308Z,20.48
2022-11-16T14:42:24.571Z,19.48
2022-11-16T14:44:57.958Z,17.70
2022-11-16T14:47:28.363Z,17.95
2022-11-16T14:49:55.552Z,22.70
2022-11-16T14:52:30.748Z,18.73
2022-11-16T14:55:00.202Z,13.70
2022-11-16T14:57:26.890Z,19.23
2022-11-16T15:00:08.932Z,19.55
2022-11-16T15:02:36.323Z,19.02
2022-11-16T15:05:03.198Z,17.27
2022-11-16T15:07:32.770Z,15.10
2022-11-16T15:10:00.272Z,20.20
2022-11-16T15:12:46.217Z,19.35
2022-11-16T15:15:17.310Z,19.05
2022-11-16T15:17:45.074Z,15.90
2022-11-16T15:20:30.767Z,19.55
2022-11-16T15:22:59.851Z,19.95
2022-11-16T15:25:32.447Z,26.85
2022-11-16T15:28:16.674Z,16.05
2022-11-16T15:30:49.564Z,17.77
2022-11-16T15:33:17.724Z,34.05
2022-11-16T15:35:58.140Z,35.63
2022-11-16T15:38:25.869Z,19.40
2022-11-16T15:40:53.485Z,30.95
2022-11-16T15:43:29.584Z,21.23
2022-11-16T15:45:57.007Z,19.35
2022-11-16T15:48:24.449Z,19.67
2022-11-16T15:50:56.232Z,23.83
2022-11-16T15:53:36.229Z,24.05
2022-11-16T15:58:32.053Z,44.13
2022-11-16T16:00:59.015Z,43.17
2022-11-16T16:03:27.973Z,39.00
2022-11-16T16:05:55.050Z,40.40
2022-11-16T16:08:25.801Z,39.90
2022-11-16T16:10:58.540Z,41.85
2022-11-16T16:17:28.343Z,24.17
2022-11-16T16:19:56.187Z,29.73
2022-11-16T16:22:33.289Z,47.85
2022-11-16T16:25:01.446Z,26.35
2022-11-16T16:27:31.866Z,35.72
2022-11-16T16:29:59.037Z,30.25
2022-11-16T16:32:35.545Z,43.20
2022-11-16T16:35:05.056Z,35.50
2022-11-16T16:37:32.508Z,47.35
2022-11-16T16:39:59.697Z,36.63
2022-11-16T16:42:32.520Z,31.60
2022-11-16T16:44:59.752Z,45.53
2022-11-16T16:47:56.580Z,34.75
2022-11-16T16:50:23.131Z,35.28
2022-11-16T16:52:49.861Z,25.58
2022-11-16T16:55:16.402Z,33.85
2022-11-16T16:57:42.854Z,33.95
2022-11-16T17:00:12.371Z,30.15
2022-11-16T17:02:41.376Z,29.33
2022-11-16T17:05:08.057Z,28.45
2022-11-16T17:07:34.859Z,33.97
2022-11-16T17:10:01.434Z,30.60
2022-11-16T17:12:27.957Z,35.88
2022-11-16T17:14:54.550Z,27.73
2022-11-16T17:17:22.041Z,34.03
2022-11-16T17:19:48.474Z,34.30
2022-11-16T17:22:14.963Z,36.25
2022-11-16T17:24:41.455Z,31.48
2022-11-16T17:27:07.977Z,35.90
2022-11-16T17:29:34.518Z,50.20
2022-11-16T17:32:01.179Z,30.45
2022-11-16T17:34:27.714Z,31.52
2022-11-16T17:36:55.861Z,24.42
2022-11-16T17:39:25.279Z,30.30
2022-11-16T17:41:51.930Z,45.70
2022-11-16T17:44:21.899Z,54.10
2022-11-16T17:46:48.988Z,31.23
2022-11-16T17:49:15.545Z,36.42
2022-11-16T17:51:42.232Z,28.98
2022-11-16T17:54:08.725Z,31.77
2022-11-16T17:56:35.379Z,44.30
2022-11-16T17:59:03.043Z,29.58
2022-11-16T18:01:29.700Z,29.10
2022-11-16T18:03:56.364Z,27.08
2022-11-16T18:06:24.023Z,34.65
2022-11-16T18:08:50.540Z,55.65
2022-11-16T18:11:18.191Z,44.42
2022-11-16T18:13:45.045Z,26.17
2022-11-16T18:16:11.765Z,37.70
2022-11-16T18:18:39.175Z,47.20
2022-11-16T18:21:06.955Z,31.67
2022-11-16T18:23:36.220Z,28.75
2022-11-16T18:26:07.979Z,39.58
2022-11-16T18:28:37.191Z,35.40
2022-11-16T18:31:04.015Z,34.90
2022-11-16T18:33:30.844Z,44.75
2022-11-16T18:35:57.600Z,40.15
2022-11-16T18:38:24.171Z,41.28
2022-11-16T18:41:09.500Z,39.55
2022-11-16T18:43:36.369Z,39.45
2022-11-16T18:46:03.851Z,31.98
2022-11-16T18:48:30.664Z,43.60
2022-11-16T18:50:58.022Z,29.40
2022-11-16T18:53:24.625Z,55.63
2022-11-16T18:55:57.864Z,31.35
2022-11-16T18:58:49.284Z,38.13
2022-11-16T19:01:15.295Z,36.60
2022-11-16T19:03:42.189Z,38.97
2022-11-16T19:06:09.394Z,28.58
2022-11-16T19:08:36.933Z,27.70
2022-11-16T19:11:07.002Z,34.00
2022-11-16T19:13:34.109Z,34.40
2022-11-16T19:16:01.006Z,43.78
2022-11-16T19:18:27.502Z,34.78
2022-11-16T19:21:10.508Z,49.30
2022-11-16T19:23:41.272Z,52.90
2022-11-16T19:26:07.885Z,45.80
2022-11-16T19:28:38.142Z,51.63
2022-11-16T19:31:21.349Z,45.58
2022-11-16T19:33:48.017Z,39.10
2022-11-16T19:36:18.271Z,96.85
2022-11-16T19:38:45.411Z,46.92
2022-11-16T19:41:12.414Z,73.80
2022-11-16T19:43:39.328Z,54.00
2022-11-16T19:46:13.067Z,38.97
2022-11-16T19:48:39.580Z,52.72
2022-11-16T19:51:09.966Z,63.13
2022-11-16T19:53:37.142Z,53.55
2022-11-16T19:56:04.738Z,53.13
2022-11-16T19:58:32.137Z,57.90
2022-11-16T20:01:05.678Z,66.47
2022-11-16T20:03:32.736Z,61.17
2022-11-16T20:06:09.796Z,52.33
2022-11-16T20:08:38.293Z,66.60
2022-11-16T20:11:31.470Z,56.65
2022-11-16T20:13:58.417Z,51.15
2022-11-16T20:16:26.307Z,65.75
2022-11-16T20:18:52.916Z,46.05
2022-11-16T20:21:21.850Z,52.30
2022-11-16T20:23:49.099Z,53.08
2022-11-16T20:26:15.599Z,43.42
2022-11-16T20:28:43.172Z,65.65
2022-11-16T20:31:20.122Z,61.45
2022-11-16T20:33:57.103Z,93.65
2022-11-16T20:36:24.858Z,70.72
2022-11-16T20:38:51.823Z,65.68
2022-11-16T20:41:19.504Z,56.42
2022-11-16T20:43:46.734Z,55.40
2022-11-16T20:46:14.212Z,84.90
2022-11-16T20:48:41.369Z,65.47
2022-11-16T20:51:08.686Z,69.13
2022-11-16T20:53:35.623Z,40.58
2022-11-16T20:56:02.874Z,38.38
2022-11-16T20:58:30.089Z,44.33
2022-11-16T21:00:59.018Z,47.13
2022-11-16T21:03:26.231Z,58.92
2022-11-16T21:05:52.771Z,47.22
2022-11-16T21:08:19.245Z,44.63
2022-11-16T21:10:46.354Z,40.70
2022-11-16T21:13:32.639Z,38.78
2022-11-16T21:16:00.910Z,40.80
2022-11-16T21:18:30.819Z,47.53
2022-11-16T21:20:58.948Z,73.05
2022-11-16T21:23:26.354Z,42.85
2022-11-16T21:25:52.951Z,53.40
2022-11-16T21:28:24.212Z,41.85
2022-11-16T21:31:02.051Z,41.88
2022-11-16T21:33:28.612Z,37.65
2022-11-16T21:35:55.295Z,42.72
2022-11-16T21:38:22.668Z,41.85
2022-11-16T21:40:49.523Z,48.03
2022-11-16T21:43:16.076Z,52.28
2022-11-16T21:45:43.409Z,53.55
2022-11-16T21:48:10.050Z,47.20
2022-11-16T21:50:36.728Z,37.03
2022-11-16T21:53:03.496Z,57.70
2022-11-16T21:55:29.986Z,43.08
2022-11-16T21:57:58.001Z,45.30
2022-11-16T22:00:24.668Z,42.60
2022-11-16T22:02:51.190Z,47.03
2022-11-16T22:05:50.138Z,72.78
2022-11-16T22:08:16.736Z,54.60
2022-11-16T22:10:43.612Z,37.20
2022-11-16T22:13:10.090Z,50.92
